Time;durP1;ratioP1;P1;durP2;ratioP2;P2;SDS_P1;SDS_P2;PMS_P1;PMS_P2;Temp;Humidity;BMP_temperature;BMP_pressure;BME280_temperature;BME280_humidity;BME280_pressure;Samples;Min_cycle;Max_cycle;Signal;HPM_P1;HPM_P2
2023/08/30 00:00:24;;;;;;;2.40;1.40;;;;;;;15.89;100.00;99265.17;178284;1260;46096;-82
2023/08/30 00:04:47;;;;;;;2.50;1.00;;;;;;;15.73;100.00;99264.69;178110;1260;61646;-82
2023/08/30 00:08:50;;;;;;;3.60;1.50;;;;;;;15.67;100.00;99263.79;177616;1260;46230;-82
2023/08/30 00:12:53;;;;;;;3.10;1.10;;;;;;;15.71;100.00;99263.48;177399;1260;45966;-82
2023/08/30 00:16:56;;;;;;;5.80;1.20;;;;;;;15.71;100.00;99261.12;177126;1260;44559;-81
2023/08/30 00:20:59;;;;;;;2.70;1.70;;;;;;;15.61;100.00;99256.15;176686;1260;46111;-81
2023/08/30 00:25:03;;;;;;;3.80;1.50;;;;;;;15.61;100.00;99251.86;177754;1260;57416;-81
2023/08/30 00:29:06;;;;;;;3.40;2.40;;;;;;;15.52;100.00;99254.87;176843;1261;48673;-81
2023/08/30 00:33:09;;;;;;;3.00;2.50;;;;;;;15.52;100.00;99260.40;176755;1263;46097;-81
2023/08/30 00:37:12;;;;;;;2.70;2.30;;;;;;;15.58;100.00;99271.30;177244;1259;46193;-81
2023/08/30 00:41:15;;;;;;;5.70;2.90;;;;;;;15.74;100.00;99274.70;177765;1260;45984;-81
2023/08/30 00:45:18;;;;;;;3.60;2.50;;;;;;;15.87;100.00;99264.95;177584;1263;59818;-81
2023/08/30 00:49:21;;;;;;;4.90;3.80;;;;;;;15.90;100.00;99263.59;177501;1259;46138;-81
2023/08/30 00:53:24;;;;;;;4.90;3.50;;;;;;;15.88;100.00;99269.33;176600;1264;46009;-81
2023/08/30 00:57:28;;;;;;;5.70;4.30;;;;;;;15.80;100.00;99266.66;178207;1259;45959;-81
2023/08/30 01:01:31;;;;;;;7.70;5.10;;;;;;;15.85;100.00;99260.24;177197;1261;46117;-81
2023/08/30 01:05:34;;;;;;;6.50;5.40;;;;;;;15.83;100.00;99259.31;176849;1259;59243;-81
2023/08/30 01:09:37;;;;;;;8.00;7.20;;;;;;;15.79;100.00;99259.09;177879;1259;46036;-81
2023/08/30 01:13:48;;;;;;;5.00;3.90;;;;;;;15.77;100.00;99252.42;177941;1259;46199;-81
2023/08/30 01:17:54;;;;;;;3.70;3.10;;;;;;;15.77;100.00;99249.23;177158;1260;46099;-81
2023/08/30 01:22:04;;;;;;;7.60;3.50;;;;;;;15.76;100.00;99250.52;178834;1259;44793;-81
2023/08/30 01:26:23;;;;;;;7.00;4.40;;;;;;;15.78;100.00;99248.92;176787;1262;59176;-82
2023/08/30 01:30:28;;;;;;;11.10;5.20;;;;;;;15.77;100.00;99251.14;177551;1261;46294;-81
2023/08/30 01:34:31;;;;;;;8.20;5.40;;;;;;;15.76;100.00;99260.54;178517;1260;46041;-81
2023/08/30 01:38:36;;;;;;;10.30;4.90;;;;;;;15.89;100.00;99268.52;177241;1264;46053;-81
2023/08/30 01:42:41;;;;;;;12.80;3.20;;;;;;;15.97;100.00;99272.64;179120;1259;46097;-81
2023/08/30 01:46:46;;;;;;;4.50;3.40;;;;;;;16.05;100.00;99274.44;178771;1259;59249;-81
2023/08/30 01:50:49;;;;;;;6.50;3.40;;;;;;;16.03;100.00;99254.73;178217;1260;45981;-81
2023/08/30 01:54:53;;;;;;;4.00;3.20;;;;;;;15.99;100.00;99251.08;177302;1260;45956;-81
2023/08/30 01:58:56;;;;;;;5.40;3.70;;;;;;;16.12;100.00;99257.86;177514;1260;45991;-81
2023/08/30 02:02:59;;;;;;;3.40;3.10;;;;;;;16.26;100.00;99258.18;178636;1259;46053;-82
2023/08/30 02:07:08;;;;;;;4.70;2.10;;;;;;;16.36;100.00;99257.98;177043;1263;60213;-81
2023/08/30 02:11:16;;;;;;;2.90;1.80;;;;;;;16.34;100.00;99249.13;178263;1260;46106;-82
2023/08/30 02:15:21;;;;;;;4.20;2.90;;;;;;;16.21;100.00;99251.98;177438;1260;46363;-82
2023/08/30 02:19:25;;;;;;;4.30;2.90;;;;;;;16.21;100.00;99256.85;178571;1260;46141;-81
2023/08/30 02:23:28;;;;;;;3.40;2.70;;;;;;;16.16;100.00;99257.13;178203;1260;45630;-81
2023/08/30 02:27:32;;;;;;;3.60;2.00;;;;;;;16.19;100.00;99250.72;178165;1259;57294;-81
2023/08/30 02:31:35;;;;;;;2.70;2.30;;;;;;;16.20;100.00;99249.32;178011;1261;46025;-81
2023/08/30 02:35:38;;;;;;;3.60;2.90;;;;;;;16.27;100.00;99244.34;177165;1259;46031;-81
2023/08/30 02:39:41;;;;;;;2.40;1.70;;;;;;;16.33;100.00;99239.98;178648;1259;46588;-82
2023/08/30 02:43:44;;;;;;;2.90;1.90;;;;;;;16.36;100.00;99234.61;177649;1260;48920;-81
2023/08/30 02:47:48;;;;;;;3.60;2.20;;;;;;;16.40;100.00;99236.77;178839;1259;57902;-81
2023/08/30 02:51:51;;;;;;;3.70;2.40;;;;;;;16.39;100.00;99237.25;178664;1260;44133;-81
2023/08/30 02:55:55;;;;;;;2.70;2.50;;;;;;;16.38;100.00;99241.11;177929;1259;46048;-81
2023/08/30 02:59:58;;;;;;;9.30;2.40;;;;;;;16.35;100.00;99237.36;177947;1259;46012;-82
2023/08/30 03:04:01;;;;;;;4.60;2.00;;;;;;;16.36;100.00;99239.77;178215;1259;46002;-81
2023/08/30 03:08:04;;;;;;;10.60;2.20;;;;;;;16.42;100.00;99241.93;177357;1259;59278;-81
2023/08/30 03:12:07;;;;;;;2.80;2.60;;;;;;;16.41;100.00;99243.95;179760;1259;46052;-81
2023/08/30 03:16:15;;;;;;;8.10;2.90;;;;;;;16.45;100.00;99250.39;177814;1260;45963;-81
2023/08/30 03:20:18;;;;;;;1.60;1.40;;;;;;;16.33;100.00;99250.52;178491;1261;46052;-82
2023/08/30 03:24:22;;;;;;;3.50;1.70;;;;;;;16.14;100.00;99249.63;178039;1259;45968;-81
2023/08/30 03:28:25;;;;;;;2.10;1.90;;;;;;;15.99;100.00;99250.89;177399;1260;58283;-80
2023/08/30 03:32:31;;;;;;;4.70;2.20;;;;;;;15.88;100.00;99252.41;178904;1259;46436;-81
2023/08/30 03:36:34;;;;;;;2.10;1.90;;;;;;;15.84;100.00;99250.17;178081;1259;44221;-80
2023/08/30 03:40:39;;;;;;;4.10;1.90;;;;;;;15.78;100.00;99249.29;178276;1259;46096;-81
2023/08/30 03:44:42;;;;;;;4.20;2.30;;;;;;;15.71;100.00;99250.84;179555;1259;44175;-80
2023/08/30 03:48:45;;;;;;;3.40;3.00;;;;;;;15.73;100.00;99252.88;180351;1260;59478;-81
2023/08/30 03:52:48;;;;;;;3.10;2.40;;;;;;;15.68;100.00;99254.60;179279;1259;46182;-80
2023/08/30 03:56:51;;;;;;;7.20;3.60;;;;;;;15.63;100.00;99252.30;177505;1260;45820;-80
2023/08/30 04:00:54;;;;;;;3.00;1.90;;;;;;;15.63;100.00;99254.58;179103;1259;46079;-81
2023/08/30 04:04:57;;;;;;;5.20;2.40;;;;;;;15.51;100.00;99249.83;177892;1259;46103;-82
2023/08/30 04:09:00;;;;;;;5.30;3.20;;;;;;;15.53;100.00;99246.92;177309;1260;57571;-82
2023/08/30 04:13:05;;;;;;;3.90;1.50;;;;;;;15.45;100.00;99238.11;177935;1260;46879;-82
2023/08/30 04:17:08;;;;;;;3.30;1.60;;;;;;;15.48;100.00;99242.65;177481;1259;46274;-82
2023/08/30 04:21:12;;;;;;;2.30;2.10;;;;;;;15.46;100.00;99246.59;177366;1259;46100;-82
2023/08/30 04:25:15;;;;;;;2.20;1.70;;;;;;;15.44;100.00;99246.16;177574;1259;46054;-81
2023/08/30 04:29:18;;;;;;;1.80;1.30;;;;;;;15.43;100.00;99249.41;177544;1260;58681;-81
2023/08/30 04:33:21;;;;;;;2.70;2.00;;;;;;;15.43;100.00;99250.20;177123;1259;45997;-81
2023/08/30 04:37:25;;;;;;;1.50;1.20;;;;;;;15.47;100.00;99250.60;178054;1259;46028;-81
2023/08/30 04:41:28;;;;;;;1.20;1.10;;;;;;;15.41;100.00;99251.08;177040;1260;46054;-81
2023/08/30 04:45:31;;;;;;;0.70;0.50;;;;;;;15.36;100.00;99246.42;177367;1260;46289;-81
2023/08/30 04:49:34;;;;;;;0.80;0.50;;;;;;;15.33;100.00;99252.10;178153;1259;59245;-82
2023/08/30 04:53:37;;;;;;;1.30;0.40;;;;;;;15.36;100.00;99256.95;177617;1259;46069;-82
2023/08/30 04:57:44;;;;;;;3.20;1.00;;;;;;;15.42;100.00;99263.01;177247;1263;44435;-82
2023/08/30 05:01:48;;;;;;;2.30;1.30;;;;;;;15.48;100.00;99259.96;177986;1259;46019;-82
2023/08/30 05:05:51;;;;;;;4.60;1.50;;;;;;;15.54;100.00;99256.15;177869;1260;44112;-81
2023/08/30 05:09:54;;;;;;;3.20;1.80;;;;;;;15.51;100.00;99257.77;178170;1259;57937;-81
2023/08/30 05:13:57;;;;;;;4.70;2.10;;;;;;;15.47;100.00;99254.38;177902;1259;45986;-81
2023/08/30 05:18:00;;;;;;;1.40;1.10;;;;;;;15.45;100.00;99247.06;177221;1259;45948;-81
2023/08/30 05:22:03;;;;;;;2.70;0.90;;;;;;;15.45;100.00;99244.92;177704;1262;46436;-81
2023/08/30 05:26:06;;;;;;;1.80;1.50;;;;;;;15.49;100.00;99245.68;177163;1259;45994;-81
2023/08/30 05:30:10;;;;;;;1.80;1.50;;;;;;;15.54;100.00;99249.05;177059;1260;59262;-82
2023/08/30 05:34:13;;;;;;;4.00;1.30;;;;;;;15.61;100.00;99252.05;177485;1262;46085;-82
2023/08/30 05:38:16;;;;;;;2.70;0.90;;;;;;;15.62;100.00;99247.30;177144;1259;46118;-82
2023/08/30 05:42:19;;;;;;;1.40;0.70;;;;;;;15.66;100.00;99245.54;177375;1259;45982;-82
2023/08/30 05:46:23;;;;;;;0.50;0.50;;;;;;;15.70;100.00;99248.91;177426;1260;46016;-82
2023/08/30 05:50:26;;;;;;;0.50;0.50;;;;;;;15.75;100.00;99259.58;177492;1259;58424;-82
2023/08/30 05:54:31;;;;;;;0.90;0.20;;;;;;;15.77;100.00;99260.92;177822;1259;46115;-83
2023/08/30 05:58:35;;;;;;;1.60;0.40;;;;;;;15.76;100.00;99266.14;177484;1259;46108;-82
2023/08/30 06:02:39;;;;;;;0.50;0.50;;;;;;;15.83;100.00;99258.68;177617;1261;46065;-82
2023/08/30 06:06:43;;;;;;;0.20;0.20;;;;;;;15.74;100.00;99267.39;177746;1260;45969;-82
2023/08/30 06:10:46;;;;;;;0.60;0.10;;;;;;;15.74;100.00;99274.54;177100;1259;58283;-81
2023/08/30 06:14:52;;;;;;;0.10;0.10;;;;;;;15.77;100.00;99272.30;177862;1259;46221;-82
2023/08/30 06:18:55;;;;;;;0.00;0.00;;;;;;;15.82;100.00;99276.98;178203;1261;46164;-81
2023/08/30 06:22:59;;;;;;;0.40;0.10;;;;;;;15.88;100.00;99275.02;177945;1259;46093;-82
2023/08/30 06:27:02;;;;;;;0.10;0.10;;;;;;;15.84;100.00;99276.94;177149;1260;45988;-82
2023/08/30 06:31:05;;;;;;;0.40;0.20;;;;;;;15.88;100.00;99280.06;177429;1259;59370;-82
2023/08/30 06:35:08;;;;;;;0.20;0.20;;;;;;;15.98;100.00;99280.50;177476;1260;53647;-83
2023/08/30 06:39:11;;;;;;;0.20;0.20;;;;;;;16.01;100.00;99284.45;177030;1260;46152;-82
2023/08/30 06:43:14;;;;;;;0.20;0.20;;;;;;;16.01;100.00;99289.32;177713;1260;46159;-82
2023/08/30 06:47:18;;;;;;;0.40;0.40;;;;;;;15.96;100.00;99290.28;177212;1261;45999;-82
2023/08/30 06:51:21;;;;;;;0.70;0.30;;;;;;;15.92;100.00;99294.44;177029;1260;57426;-82
2023/08/30 06:55:24;;;;;;;0.40;0.40;;;;;;;15.99;100.00;99293.79;177909;1260;46138;-82
2023/08/30 06:59:28;;;;;;;0.70;0.50;;;;;;;16.02;100.00;99295.20;177745;1262;45994;-82
2023/08/30 07:03:31;;;;;;;0.60;0.60;;;;;;;16.09;100.00;99296.02;177405;1261;46493;-82
2023/08/30 07:07:34;;;;;;;0.90;0.50;;;;;;;16.05;100.00;99299.56;177255;1261;46127;-82
2023/08/30 07:11:38;;;;;;;0.70;0.60;;;;;;;16.09;100.00;99300.21;177442;1261;57721;-82
2023/08/30 07:15:42;;;;;;;0.50;0.50;;;;;;;16.11;100.00;99300.05;177407;1260;46033;-82
2023/08/30 07:19:45;;;;;;;1.20;0.50;;;;;;;16.11;100.00;99297.17;177809;1259;46096;-82
2023/08/30 07:23:48;;;;;;;1.20;0.50;;;;;;;16.19;100.00;99297.15;176969;1262;46111;-82
2023/08/30 07:27:51;;;;;;;0.30;0.30;;;;;;;16.21;100.00;99295.52;177069;1260;44219;-81
2023/08/30 07:31:54;;;;;;;0.20;0.20;;;;;;;16.22;100.00;99296.54;177434;1259;58592;-82
2023/08/30 07:35:57;;;;;;;0.50;0.30;;;;;;;16.23;100.00;99302.90;177073;1259;46457;-81
2023/08/30 07:40:04;;;;;;;0.20;0.10;;;;;;;16.36;100.00;99300.63;177084;1259;46105;-82
2023/08/30 07:44:07;;;;;;;0.40;0.30;;;;;;;16.41;100.00;99303.44;177371;1264;46072;-82
2023/08/30 07:48:12;;;;;;;1.10;0.10;;;;;;;16.55;100.00;99308.49;177393;1264;46072;-82
2023/08/30 07:52:15;;;;;;;0.70;0.30;;;;;;;16.69;100.00;99316.33;178063;1259;57765;-81
2023/08/30 07:56:20;;;;;;;0.50;0.20;;;;;;;16.73;100.00;99320.70;177611;1259;46067;-82
2023/08/30 08:00:23;;;;;;;0.10;0.10;;;;;;;16.82;100.00;99326.51;177372;1259;46516;-82
2023/08/30 08:04:26;;;;;;;0.40;0.20;;;;;;;16.95;100.00;99329.95;177699;1259;45997;-81
2023/08/30 08:08:29;;;;;;;0.40;0.40;;;;;;;16.91;100.00;99329.27;177527;1263;46125;-81
2023/08/30 08:12:33;;;;;;;1.00;0.30;;;;;;;16.89;100.00;99335.05;178115;1259;59288;-82
2023/08/30 08:16:37;;;;;;;0.50;0.40;;;;;;;16.93;100.00;99329.96;177983;1259;46427;-81
2023/08/30 08:20:40;;;;;;;0.20;0.10;;;;;;;16.98;100.00;99336.96;178156;1260;45992;-81
2023/08/30 08:24:45;;;;;;;0.40;0.20;;;;;;;16.84;100.00;99338.66;177342;1260;45981;-82
2023/08/30 08:28:49;;;;;;;0.20;0.10;;;;;;;16.74;100.00;99340.95;177615;1260;46020;-81
2023/08/30 08:32:55;;;;;;;0.40;0.30;;;;;;;16.64;100.00;99340.73;177258;1264;59525;-81
2023/08/30 08:36:58;;;;;;;0.50;0.50;;;;;;;16.57;100.00;99340.27;177226;1262;50763;-82
2023/08/30 08:41:04;;;;;;;0.30;0.30;;;;;;;16.60;100.00;99345.92;177736;1262;46121;-81
2023/08/30 08:45:10;;;;;;;1.70;0.10;;;;;;;16.60;100.00;99348.23;177447;1259;46104;-81
2023/08/30 08:49:15;;;;;;;0.40;0.40;;;;;;;16.60;100.00;99347.66;177219;1259;45983;-81
2023/08/30 08:53:18;;;;;;;0.20;0.20;;;;;;;16.63;100.00;99349.27;177471;1260;57829;-81
2023/08/30 08:57:21;;;;;;;0.80;0.60;;;;;;;16.62;100.00;99357.17;177205;1264;46161;-81
2023/08/30 09:01:25;;;;;;;0.30;0.30;;;;;;;16.58;100.00;99366.18;177456;1261;46141;-82
2023/08/30 09:05:38;;;;;;;0.80;0.30;;;;;;;16.51;100.00;99369.64;177837;1261;46004;-81
2023/08/30 09:09:41;;;;;;;0.20;0.20;;;;;;;16.65;100.00;99362.46;177463;1261;45994;-81
2023/08/30 09:13:44;;;;;;;0.60;0.40;;;;;;;16.77;100.00;99363.67;177283;1260;59853;-82
2023/08/30 09:17:48;;;;;;;0.60;0.40;;;;;;;17.00;100.00;99360.80;177983;1260;46150;-81
2023/08/30 09:21:56;;;;;;;0.10;0.00;;;;;;;17.24;100.00;99355.01;177682;1264;46288;-81
2023/08/30 09:26:00;;;;;;;0.80;0.20;;;;;;;17.32;100.00;99353.68;177246;1264;46172;-82
2023/08/30 09:30:07;;;;;;;0.10;0.00;;;;;;;17.26;100.00;99358.16;177290;1259;46198;-82
2023/08/30 09:34:11;;;;;;;0.20;0.10;;;;;;;17.10;100.00;99362.60;177285;1260;59860;-81
2023/08/30 09:38:18;;;;;;;0.20;0.20;;;;;;;16.97;100.00;99365.55;177299;1264;266074;-82
2023/08/30 09:42:22;;;;;;;0.80;0.30;;;;;;;16.85;100.00;99368.59;176893;1259;46107;-82
2023/08/30 09:46:25;;;;;;;0.90;0.50;;;;;;;16.70;100.00;99365.98;177809;1260;46031;-81
2023/08/30 09:50:54;;;;;;;0.60;0.40;;;;;;;16.55;100.00;99368.16;176993;1261;46045;-81
2023/08/30 09:54:58;;;;;;;2.00;0.50;;;;;;;16.64;100.00;99368.27;177056;1259;57601;-82
2023/08/30 09:59:03;;;;;;;1.20;0.60;;;;;;;16.86;100.00;99356.45;177174;1264;45971;-81
2023/08/30 10:03:07;;;;;;;0.80;0.70;;;;;;;17.14;100.00;99348.26;177555;1263;45881;-82
2023/08/30 10:07:13;;;;;;;1.10;0.80;;;;;;;17.40;100.00;99337.90;177676;1260;46086;-81
2023/08/30 10:11:18;;;;;;;0.70;0.40;;;;;;;17.61;100.00;99337.25;177237;1259;46190;-81
2023/08/30 10:15:23;;;;;;;1.20;0.90;;;;;;;17.70;100.00;99343.67;177815;1260;58647;-81
2023/08/30 10:19:28;;;;;;;0.70;0.60;;;;;;;17.59;100.00;99352.17;177431;1261;46101;-81
2023/08/30 10:23:31;;;;;;;0.60;0.60;;;;;;;17.68;100.00;99357.82;177959;1263;46057;-80
2023/08/30 10:27:38;;;;;;;1.00;0.80;;;;;;;17.67;100.00;99364.55;177183;1262;46115;-81
2023/08/30 10:31:41;;;;;;;0.80;0.80;;;;;;;17.77;100.00;99357.27;177190;1264;46097;-81
2023/08/30 10:35:49;;;;;;;0.80;0.50;;;;;;;17.89;100.00;99355.90;177314;1262;59314;-81
2023/08/30 10:39:53;;;;;;;1.00;0.90;;;;;;;17.78;100.00;99361.00;177468;1265;46122;-81
2023/08/30 10:43:56;;;;;;;2.40;1.50;;;;;;;17.68;100.00;99359.60;177988;1260;46133;-81
2023/08/30 10:48:03;;;;;;;1.90;1.50;;;;;;;17.61;100.00;99350.15;178031;1263;46147;-81
2023/08/30 10:52:12;;;;;;;1.80;1.70;;;;;;;17.71;100.00;99348.70;177413;1260;46164;-80
2023/08/30 10:56:15;;;;;;;1.40;1.20;;;;;;;17.86;100.00;99348.55;177678;1263;57907;-81
2023/08/30 11:00:23;;;;;;;1.60;0.80;;;;;;;17.89;100.00;99357.38;176946;1264;46137;-81
2023/08/30 11:04:26;;;;;;;1.10;0.90;;;;;;;17.93;100.00;99362.18;177450;1263;46084;-81
2023/08/30 11:08:29;;;;;;;0.80;0.80;;;;;;;17.86;100.00;99361.87;176751;1259;46199;-81
2023/08/30 11:12:33;;;;;;;1.10;0.70;;;;;;;17.80;100.00;99362.79;177542;1260;46136;-81
2023/08/30 11:16:36;;;;;;;1.50;1.30;;;;;;;17.85;100.00;99363.19;177137;1265;59171;-81
2023/08/30 11:20:40;;;;;;;1.00;0.70;;;;;;;17.99;100.00;99364.34;177363;1259;45999;-81
2023/08/30 11:24:46;;;;;;;3.00;1.20;;;;;;;18.19;100.00;99366.66;176162;1260;45953;-81
2023/08/30 11:28:52;;;;;;;0.80;0.50;;;;;;;18.29;100.00;99371.48;177810;1260;46448;-81
2023/08/30 11:32:57;;;;;;;0.80;0.70;;;;;;;18.38;100.00;99368.21;177192;1259;44071;-81
2023/08/30 11:37:00;;;;;;;3.10;0.50;;;;;;;18.55;100.00;99366.73;177283;1261;59050;-81
2023/08/30 11:41:04;;;;;;;0.80;0.70;;;;;;;18.62;100.00;99363.14;177687;1260;45911;-81
2023/08/30 11:45:09;;;;;;;2.10;1.40;;;;;;;18.57;100.00;99359.18;177540;1265;46173;-81
2023/08/30 11:49:12;;;;;;;1.50;1.10;;;;;;;18.35;100.00;99360.13;178181;1259;46060;-81
2023/08/30 11:53:16;;;;;;;2.80;0.80;;;;;;;18.04;100.00;99358.71;177382;1260;45959;-82
2023/08/30 11:57:20;;;;;;;2.70;1.10;;;;;;;17.83;100.00;99361.53;177384;1259;58362;-81
2023/08/30 12:01:23;;;;;;;2.60;0.90;;;;;;;17.69;100.00;99362.83;178626;1261;44813;-81
2023/08/30 12:05:27;;;;;;;1.80;1.60;;;;;;;17.65;100.00;99357.99;177654;1260;45956;-82
2023/08/30 12:09:31;;;;;;;1.80;1.70;;;;;;;17.79;100.00;99357.11;177376;1260;46039;-81
2023/08/30 12:13:34;;;;;;;1.90;1.80;;;;;;;17.86;100.00;99363.45;177401;1259;46110;-81
2023/08/30 12:17:37;;;;;;;2.10;1.80;;;;;;;17.98;100.00;99365.69;177689;1259;59587;-81
2023/08/30 12:21:46;;;;;;;1.50;1.20;;;;;;;18.01;100.00;99364.77;177718;1260;45993;-81
2023/08/30 12:26:08;;;;;;;1.80;1.50;;;;;;;17.80;100.00;99365.80;177355;1260;46101;-81
2023/08/30 12:30:11;;;;;;;2.70;2.50;;;;;;;17.63;100.00;99360.92;177514;1260;46111;-81
2023/08/30 12:34:14;;;;;;;2.30;2.10;;;;;;;17.78;100.00;99360.09;177633;1260;46121;-81
2023/08/30 12:38:17;;;;;;;3.10;2.70;;;;;;;17.96;100.00;99357.02;177101;1261;59367;-81
2023/08/30 12:42:20;;;;;;;1.80;1.40;;;;;;;18.17;100.00;99356.35;177431;1261;45957;-81
2023/08/30 12:46:23;;;;;;;2.90;1.40;;;;;;;18.37;100.00;99350.67;177157;1261;45968;-81
2023/08/30 12:50:28;;;;;;;1.60;1.50;;;;;;;18.56;100.00;99348.95;177901;1260;46089;-81
2023/08/30 12:54:31;;;;;;;4.20;1.80;;;;;;;18.50;100.00;99354.11;177492;1264;45957;-81
2023/08/30 12:58:34;;;;;;;2.60;1.50;;;;;;;18.54;100.00;99355.57;177425;1266;58307;-81
2023/08/30 13:02:37;;;;;;;1.70;0.90;;;;;;;18.49;100.00;99353.48;178050;1260;45978;-81
2023/08/30 13:06:41;;;;;;;4.40;2.10;;;;;;;18.34;100.00;99358.06;177839;1265;45991;-82
2023/08/30 13:10:44;;;;;;;3.90;2.10;;;;;;;18.45;100.00;99353.13;177978;1263;46117;-83
2023/08/30 13:14:48;;;;;;;2.80;2.00;;;;;;;18.41;100.00;99352.04;178649;1260;46125;-83
2023/08/30 13:18:52;;;;;;;2.40;1.40;;;;;;;18.33;100.00;99351.53;177587;1262;59140;-83
2023/08/30 13:22:55;;;;;;;1.80;1.50;;;;;;;18.33;100.00;99349.64;176960;1260;46128;-83
2023/08/30 13:26:58;;;;;;;2.20;2.00;;;;;;;18.52;100.00;99346.88;178501;1261;44207;-82
2023/08/30 13:31:02;;;;;;;3.40;1.10;;;;;;;18.72;100.00;99340.80;177974;1260;44350;-82
2023/08/30 13:35:06;;;;;;;2.50;1.50;;;;;;;18.90;100.00;99342.14;178072;1265;46097;-82
2023/08/30 13:39:09;;;;;;;1.30;1.00;;;;;;;18.95;100.00;99342.30;177872;1260;58249;-82
2023/08/30 13:43:12;;;;;;;1.00;0.90;;;;;;;19.08;100.00;99341.38;177571;1260;46105;-82
2023/08/30 13:47:16;;;;;;;2.20;0.90;;;;;;;19.33;100.00;99341.45;177735;1265;46064;-83
2023/08/30 13:51:23;;;;;;;1.20;0.90;;;;;;;19.53;100.00;99338.21;177161;1261;46192;-83
2023/08/30 13:55:26;;;;;;;2.40;0.90;;;;;;;19.65;100.00;99338.16;178242;1260;45982;-83
2023/08/30 13:59:30;;;;;;;1.50;1.20;;;;;;;19.72;100.00;99342.09;177791;1264;58253;-82
2023/08/30 14:03:33;;;;;;;1.50;1.30;;;;;;;19.59;100.00;99337.67;177813;1263;46255;-82
2023/08/30 14:07:37;;;;;;;3.30;1.10;;;;;;;19.50;100.00;99339.36;178046;1264;46103;-84
2023/08/30 14:11:41;;;;;;;2.10;1.20;;;;;;;19.35;100.00;99342.60;178295;1260;46108;-84
2023/08/30 14:15:46;;;;;;;0.60;0.60;;;;;;;19.12;100.00;99340.21;177774;1261;45993;-86
2023/08/30 14:20:24;;;;;;;1.20;0.70;;;;;;;18.79;100.00;99345.25;178489;1259;60618;-83
2023/08/30 14:24:28;;;;;;;1.00;0.90;;;;;;;18.56;100.00;99347.34;179634;1259;46051;-83
2023/08/30 14:28:37;;;;;;;2.20;1.40;;;;;;;18.30;100.00;99348.25;178662;1259;45108;-84
2023/08/30 14:32:40;;;;;;;2.40;2.20;;;;;;;18.11;100.00;99354.90;178580;1259;46175;-84
2023/08/30 14:36:45;;;;;;;3.70;1.70;;;;;;;17.97;100.00;99355.45;180147;1259;46175;-82
2023/08/30 14:40:56;;;;;;;3.10;2.00;;;;;;;18.01;100.00;99354.17;178645;1259;57680;-83
2023/08/30 14:44:59;;;;;;;2.50;1.00;;;;;;;18.16;100.00;99352.70;178992;1259;44565;-82
2023/08/30 14:49:03;;;;;;;2.60;1.30;;;;;;;18.30;100.00;99358.07;178721;1259;47552;-84
2023/08/30 14:53:06;;;;;;;1.10;0.80;;;;;;;18.43;100.00;99358.35;178662;1259;44374;-85
2023/08/30 14:57:10;;;;;;;1.50;0.90;;;;;;;18.54;100.00;99359.48;178607;1259;50247;-81
2023/08/30 15:01:14;;;;;;;1.00;0.80;;;;;;;18.63;100.00;99360.08;177617;1259;56972;-81
2023/08/30 15:05:18;;;;;;;1.50;1.10;;;;;;;18.66;100.00;99364.16;177996;1259;47768;-84
2023/08/30 15:09:21;;;;;;;0.40;0.30;;;;;;;18.72;100.00;99357.67;178080;1259;46127;-83
2023/08/30 15:13:25;;;;;;;1.10;0.90;;;;;;;18.75;100.00;99352.61;178788;1259;46118;-83
2023/08/30 15:17:28;;;;;;;0.60;0.50;;;;;;;18.76;100.00;99350.71;177837;1259;46109;-83
2023/08/30 15:21:31;;;;;;;1.70;1.10;;;;;;;18.80;100.00;99349.27;178783;1258;60646;-85
2023/08/30 15:25:35;;;;;;;1.60;1.00;;;;;;;18.85;100.00;99350.58;178017;1259;46100;-84
2023/08/30 15:29:38;;;;;;;1.40;1.00;;;;;;;18.79;100.00;99348.66;178475;1259;46000;-84
2023/08/30 15:33:45;;;;;;;2.40;0.90;;;;;;;18.72;100.00;99348.02;177989;1263;46067;-84
2023/08/30 15:37:49;;;;;;;2.90;1.30;;;;;;;18.72;100.00;99343.33;178372;1259;46019;-85
2023/08/30 15:41:53;;;;;;;0.80;0.80;;;;;;;18.78;100.00;99337.30;178662;1259;58202;-85
2023/08/30 15:45:56;;;;;;;8.00;0.70;;;;;;;18.77;100.00;99333.73;178133;1259;45943;-85
2023/08/30 15:49:59;;;;;;;1.80;1.10;;;;;;;18.79;100.00;99339.16;178620;1259;45985;-85
2023/08/30 15:54:03;;;;;;;3.00;1.10;;;;;;;18.80;100.00;99344.77;179374;1259;46290;-84
2023/08/30 15:58:06;;;;;;;1.50;1.40;;;;;;;18.82;100.00;99350.41;179975;1260;44165;-85
2023/08/30 16:02:09;;;;;;;2.30;1.80;;;;;;;18.80;100.00;99351.23;179924;1260;59558;-86
2023/08/30 16:06:13;;;;;;;2.50;1.70;;;;;;;18.80;100.00;99349.11;178299;1259;46038;-83
2023/08/30 16:10:20;;;;;;;3.70;2.00;;;;;;;18.80;100.00;99348.12;178442;1259;45829;-86
2023/08/30 16:14:23;;;;;;;1.80;1.30;;;;;;;18.80;100.00;99342.83;178513;1259;46123;-85
2023/08/30 16:18:28;;;;;;;2.40;2.20;;;;;;;18.75;100.00;99346.90;178256;1259;46039;-86
2023/08/30 16:22:33;;;;;;;7.00;1.60;;;;;;;18.75;100.00;99354.32;177840;1261;58518;-84
2023/08/30 16:26:36;;;;;;;2.40;2.00;;;;;;;18.77;100.00;99353.30;177855;1261;46156;-84
2023/08/30 16:30:40;;;;;;;1.90;1.70;;;;;;;18.75;100.00;99356.47;177579;1261;46567;-84
2023/08/30 16:34:49;;;;;;;3.00;2.20;;;;;;;18.75;100.00;99359.66;177441;1262;46117;-82
2023/08/30 16:38:53;;;;;;;2.30;1.80;;;;;;;18.73;100.00;99362.19;177069;1260;45966;-84
2023/08/30 16:42:56;;;;;;;3.50;2.60;;;;;;;18.69;100.00;99364.64;177379;1265;58250;-85
2023/08/30 16:46:59;;;;;;;2.70;2.20;;;;;;;18.72;100.00;99366.13;177581;1261;45985;-84
2023/08/30 16:51:04;;;;;;;2.60;2.40;;;;;;;18.69;100.00;99366.83;177404;1261;46071;-84
2023/08/30 16:55:08;;;;;;;4.00;2.00;;;;;;;18.66;100.00;99365.11;177740;1261;46414;-85
2023/08/30 16:59:11;;;;;;;3.00;2.20;;;;;;;18.72;100.00;99372.42;177129;1261;46581;-82
2023/08/30 17:03:14;;;;;;;4.20;2.00;;;;;;;18.76;100.00;99371.14;177170;1264;58234;-82
2023/08/30 17:07:19;;;;;;;2.30;2.00;;;;;;;18.72;100.00;99367.08;177167;1260;45946;-84
2023/08/30 17:11:22;;;;;;;3.50;1.60;;;;;;;18.65;100.00;99372.19;177514;1260;46117;-83
2023/08/30 17:15:26;;;;;;;2.90;2.40;;;;;;;18.61;100.00;99374.69;177418;1261;45996;-84
2023/08/30 17:19:30;;;;;;;2.40;2.10;;;;;;;18.63;100.00;99372.96;177767;1260;46160;-84
2023/08/30 17:23:33;;;;;;;2.70;2.10;;;;;;;18.72;100.00;99370.23;177191;1260;59541;-85
2023/08/30 17:27:37;;;;;;;3.70;3.20;;;;;;;18.73;100.00;99370.85;179201;1260;45985;-83
2023/08/30 17:31:41;;;;;;;8.60;4.20;;;;;;;18.72;100.00;99367.42;178385;1261;46113;-84
2023/08/30 17:35:45;;;;;;;3.70;3.30;;;;;;;18.70;100.00;99370.72;178551;1260;44315;-83
2023/08/30 17:39:48;;;;;;;3.90;3.60;;;;;;;18.73;100.00;99371.36;177905;1260;46115;-83
2023/08/30 17:43:51;;;;;;;4.10;3.70;;;;;;;18.72;100.00;99370.92;178540;1260;58425;-84
2023/08/30 17:47:55;;;;;;;5.20;4.10;;;;;;;18.68;100.00;99373.08;178614;1260;44212;-84
2023/08/30 17:51:58;;;;;;;5.90;3.10;;;;;;;18.66;100.00;99377.45;178268;1260;46480;-84
2023/08/30 17:56:01;;;;;;;3.10;2.80;;;;;;;18.67;100.00;99381.32;177801;1260;46027;-84
2023/08/30 18:00:09;;;;;;;6.30;2.90;;;;;;;18.63;100.00;99379.89;177763;1260;46569;-86
2023/08/30 18:04:12;;;;;;;6.60;3.60;;;;;;;18.59;100.00;99382.65;178090;1260;58696;-85
2023/08/30 18:08:16;;;;;;;3.30;2.20;;;;;;;18.60;100.00;99382.23;177917;1261;45988;-83
2023/08/30 18:12:20;;;;;;;3.40;2.40;;;;;;;18.60;100.00;99380.91;178141;1261;46026;-87
2023/08/30 18:16:23;;;;;;;8.30;5.20;;;;;;;18.60;100.00;99381.58;178341;1260;49319;-83
2023/08/30 18:20:28;;;;;;;3.90;3.60;;;;;;;18.56;100.00;99377.50;177594;1260;46143;-85
2023/08/30 18:24:31;;;;;;;9.00;5.70;;;;;;;18.52;100.00;99380.39;177663;1260;59865;-83
2023/08/30 18:28:34;;;;;;;9.10;5.70;;;;;;;18.50;100.00;99382.33;177525;1260;46201;-85
2023/08/30 18:32:38;;;;;;;8.20;5.70;;;;;;;18.50;100.00;99383.52;177969;1260;45988;-82
2023/08/30 18:36:43;;;;;;;9.20;6.30;;;;;;;18.52;100.00;99389.38;178462;1260;43981;-86
2023/08/30 18:40:47;;;;;;;8.40;4.40;;;;;;;18.49;100.00;99391.89;178486;1265;46056;-83